createdAt,value
2023-04-10T00:01:13.266Z,2.80
2023-04-10T00:03:40.090Z,2.60
2023-04-10T00:06:07.481Z,2.50
2023-04-10T00:08:34.115Z,2.40
2023-04-10T00:11:00.803Z,2.30
2023-04-10T00:13:27.425Z,2.20
2023-04-10T00:15:54.056Z,2.20
2023-04-10T00:18:20.773Z,2.10
2023-04-10T00:20:47.362Z,2.10
2023-04-10T00:23:14.364Z,2.00
2023-04-10T00:25:40.961Z,1.90
2023-04-10T00:28:07.531Z,1.90
2023-04-10T00:30:34.146Z,1.90
2023-04-10T00:33:01.111Z,1.90
2023-04-10T00:35:27.985Z,1.90
2023-04-10T00:37:56.232Z,2.10
2023-04-10T00:40:23.059Z,2.00
2023-04-10T00:42:49.819Z,2.00
2023-04-10T00:45:16.482Z,1.90
2023-04-10T00:47:43.244Z,2.00
2023-04-10T00:50:10.538Z,1.90
2023-04-10T00:52:37.522Z,1.90
2023-04-10T00:55:04.588Z,1.90
2023-04-10T00:57:32.115Z,1.80
2023-04-10T00:59:58.827Z,1.90
2023-04-10T01:02:25.884Z,1.80
2023-04-10T01:04:53.036Z,1.80
2023-04-10T01:07:29.586Z,1.70
2023-04-10T01:10:01.975Z,1.70
2023-04-10T01:13:05.691Z,1.70
2023-04-10T01:15:42.284Z,1.70
2023-04-10T01:18:22.737Z,1.60
2023-04-10T01:20:49.404Z,1.70
2023-04-10T01:23:31.449Z,1.80
2023-04-10T01:26:04.113Z,1.80
2023-04-10T01:28:56.049Z,2.00
2023-04-10T01:31:28.537Z,1.90
2023-04-10T01:34:01.967Z,1.70
2023-04-10T01:36:34.857Z,1.70
2023-04-10T01:39:02.209Z,1.60
2023-04-10T01:41:29.459Z,1.50
2023-04-10T01:43:59.033Z,1.50
2023-04-10T01:46:28.543Z,1.40
2023-04-10T01:48:56.645Z,1.50
2023-04-10T01:51:24.078Z,1.40
2023-04-10T01:53:51.970Z,1.40
2023-04-10T01:56:23.801Z,1.40
2023-04-10T01:58:50.984Z,1.40
2023-04-10T02:01:28.910Z,1.40
2023-04-10T02:03:56.756Z,1.40
2023-04-10T02:06:49.577Z,1.40
2023-04-10T02:09:27.214Z,1.30
2023-04-10T02:12:07.067Z,1.30
2023-04-10T02:14:37.930Z,1.20
2023-04-10T02:17:04.636Z,1.10
2023-04-10T02:19:32.996Z,1.10
2023-04-10T02:21:59.971Z,1.00
2023-04-10T02:24:27.322Z,1.10
2023-04-10T02:26:54.058Z,1.10
2023-04-10T02:29:21.304Z,1.10
2023-04-10T02:31:49.659Z,1.10
2023-04-10T02:34:16.513Z,1.10
2023-04-10T02:36:43.161Z,1.20
2023-04-10T02:39:12.237Z,1.20
2023-04-10T02:41:47.388Z,1.10
2023-04-10T02:44:14.354Z,1.00
2023-04-10T02:46:41.887Z,1.00
2023-04-10T02:49:08.663Z,1.00
2023-04-10T02:51:36.418Z,1.00
2023-04-10T02:54:04.418Z,1.10
2023-04-10T02:56:34.839Z,1.10
2023-04-10T02:59:02.029Z,1.00
2023-04-10T03:01:29.943Z,1.00
2023-04-10T03:03:58.059Z,1.00
2023-04-10T03:06:28.464Z,1.10
2023-04-10T03:08:57.277Z,1.20
2023-04-10T03:11:24.015Z,1.20
2023-04-10T03:13:51.264Z,1.20
2023-04-10T03:16:18.891Z,1.20
2023-04-10T03:18:46.489Z,1.20
2023-04-10T03:21:13.931Z,1.30
2023-04-10T03:23:40.560Z,1.30
2023-04-10T03:26:08.465Z,1.40
2023-04-10T03:28:38.022Z,1.60
2023-04-10T03:31:06.021Z,1.80
2023-04-10T03:33:35.807Z,1.90
2023-04-10T03:36:04.303Z,2.00
2023-04-10T03:38:32.985Z,1.90
2023-04-10T03:40:59.651Z,1.90
2023-04-10T03:43:30.651Z,2.00
2023-04-10T03:45:57.996Z,2.10
2023-04-10T03:48:27.982Z,2.20
2023-04-10T03:50:55.353Z,2.40
2023-04-10T03:53:22.633Z,2.40
2023-04-10T03:55:52.089Z,2.50
2023-04-10T03:58:19.139Z,2.60
2023-04-10T04:00:46.627Z,2.70
2023-04-10T04:03:24.122Z,2.70
2023-04-10T04:05:53.818Z,2.70
2023-04-10T04:08:40.722Z,2.70
2023-04-10T04:11:21.560Z,2.60
2023-04-10T04:13:58.418Z,2.60
2023-04-10T04:16:43.856Z,2.40
2023-04-10T04:19:33.331Z,2.30
2023-04-10T04:22:08.132Z,2.20
2023-04-10T04:24:53.372Z,2.40
2023-04-10T04:27:42.993Z,2.50
2023-04-10T04:30:28.422Z,2.50
2023-04-10T04:33:09.480Z,2.70
2023-04-10T04:36:05.662Z,2.80
2023-04-10T04:38:52.562Z,2.70
2023-04-10T04:41:32.364Z,2.80
2023-04-10T04:44:19.649Z,2.90
2023-04-10T04:47:06.520Z,3.00
2023-04-10T04:49:41.769Z,2.90
2023-04-10T04:52:19.213Z,2.90
2023-04-10T04:55:02.832Z,3.00
2023-04-10T04:57:53.084Z,3.00
2023-04-10T05:00:33.972Z,3.10
2023-04-10T05:03:07.260Z,3.20
2023-04-10T05:05:58.113Z,3.40
2023-04-10T05:08:33.398Z,3.50
2023-04-10T05:11:07.659Z,3.60
2023-04-10T05:13:53.175Z,3.70
2023-04-10T05:16:33.504Z,3.80
2023-04-10T05:19:06.133Z,3.90
2023-04-10T05:21:47.699Z,4.00
2023-04-10T05:24:33.505Z,4.10
2023-04-10T05:27:21.991Z,4.30
2023-04-10T05:30:18.025Z,4.40
2023-04-10T05:33:03.453Z,4.50
2023-04-10T05:35:48.840Z,4.60
2023-04-10T05:38:25.444Z,4.80
2023-04-10T05:41:12.026Z,4.90
2023-04-10T05:43:58.900Z,5.10
2023-04-10T05:46:45.925Z,5.40
2023-04-10T05:49:31.447Z,5.60
2023-04-10T05:52:14.614Z,5.60
2023-04-10T05:55:09.526Z,5.70
2023-04-10T05:57:42.203Z,5.80
2023-04-10T06:00:23.770Z,5.90
2023-04-10T06:03:30.544Z,6.10
2023-04-10T06:06:02.545Z,6.20
2023-04-10T06:08:30.663Z,6.30
2023-04-10T06:10:57.282Z,6.30
2023-04-10T06:13:24.813Z,6.40
2023-04-10T06:15:55.250Z,6.50
2023-04-10T06:18:22.205Z,6.60
2023-04-10T06:20:48.859Z,6.70
2023-04-10T06:23:15.903Z,6.80
2023-04-10T06:25:43.759Z,6.80
2023-04-10T06:28:10.747Z,6.90
2023-04-10T06:30:37.459Z,7.00
2023-04-10T06:33:06.604Z,7.10
2023-04-10T06:35:36.407Z,7.30
2023-04-10T06:38:03.762Z,7.50
2023-04-10T06:40:34.103Z,7.70
2023-04-10T06:43:01.341Z,7.80
2023-04-10T06:45:34.656Z,8.10
2023-04-10T06:48:01.425Z,8.10
2023-04-10T06:50:28.182Z,8.20
2023-04-10T06:52:56.247Z,8.20
2023-04-10T06:55:22.891Z,8.20
2023-04-10T06:57:49.745Z,8.20
2023-04-10T07:00:16.704Z,8.20
2023-04-10T07:02:43.409Z,8.20
2023-04-10T07:05:10.181Z,8.20
2023-04-10T07:07:37.088Z,8.20
2023-04-10T07:10:03.917Z,8.30
2023-04-10T07:12:30.603Z,8.40
2023-04-10T07:14:57.225Z,8.70
2023-04-10T07:17:25.320Z,8.80
2023-04-10T07:19:52.074Z,9.00
2023-04-10T07:22:18.716Z,9.20
2023-04-10T07:24:45.660Z,9.40
2023-04-10T07:27:12.803Z,9.50
2023-04-10T07:29:39.535Z,9.60
2023-04-10T07:32:06.761Z,9.80
2023-04-10T07:34:33.656Z,10.00
2023-04-10T07:37:00.244Z,10.10
2023-04-10T07:39:27.435Z,10.40
2023-04-10T07:41:55.226Z,10.50
2023-04-10T07:44:21.951Z,10.50
2023-04-10T07:46:48.562Z,10.80
2023-04-10T07:49:15.269Z,10.50
2023-04-10T07:51:41.926Z,10.60
2023-04-10T07:54:08.511Z,10.60
2023-04-10T07:56:35.224Z,10.70
2023-04-10T07:59:03.279Z,10.90
2023-04-10T08:01:30.119Z,11.30
2023-04-10T08:03:56.998Z,11.40
2023-04-10T08:06:23.839Z,11.30
2023-04-10T08:08:52.153Z,11.40
2023-04-10T08:11:28.010Z,11.70
2023-04-10T08:13:57.985Z,12.00
2023-04-10T08:16:25.929Z,12.20
2023-04-10T08:18:53.854Z,12.30
2023-04-10T08:21:22.168Z,12.30
2023-04-10T08:23:52.874Z,12.40
2023-04-10T08:26:21.097Z,12.60
2023-04-10T08:28:50.629Z,12.70
2023-04-10T08:31:18.478Z,12.80
2023-04-10T08:33:45.552Z,13.00
2023-04-10T08:36:13.046Z,13.00
2023-04-10T08:38:39.921Z,13.00
2023-04-10T08:41:06.814Z,13.20
2023-04-10T08:43:34.547Z,13.20
2023-04-10T08:46:01.843Z,13.50
2023-04-10T08:48:35.840Z,13.40
2023-04-10T08:51:08.881Z,13.20
2023-04-10T08:53:40.082Z,13.30
2023-04-10T08:56:07.541Z,13.50
2023-04-10T08:58:34.359Z,13.40
2023-04-10T09:01:01.651Z,13.50
2023-04-10T09:03:28.481Z,13.50
2023-04-10T09:05:56.615Z,13.80
2023-04-10T09:08:23.238Z,13.90
2023-04-10T09:10:49.842Z,13.90
2023-04-10T09:13:16.703Z,13.90
2023-04-10T09:15:57.429Z,14.10
2023-04-10T09:18:42.951Z,14.20
2023-04-10T09:21:11.565Z,14.30
2023-04-10T09:23:38.339Z,14.20
2023-04-10T09:26:25.968Z,14.30
2023-04-10T09:29:06.778Z,14.40
2023-04-10T09:31:35.098Z,14.40
2023-04-10T09:34:15.322Z,14.40
2023-04-10T09:37:03.027Z,14.50
2023-04-10T09:39:42.898Z,14.40
2023-04-10T09:42:11.410Z,14.20
2023-04-10T09:44:40.008Z,14.30
2023-04-10T09:47:16.029Z,14.30
2023-04-10T09:49:57.316Z,14.60
2023-04-10T09:52:28.122Z,14.80
2023-04-10T09:54:56.784Z,14.80
2023-04-10T09:57:25.753Z,14.50
2023-04-10T09:59:54.699Z,14.70
2023-04-10T10:02:23.764Z,14.80
2023-04-10T10:04:51.716Z,14.90
2023-04-10T10:07:23.503Z,15.10
2023-04-10T10:09:52.310Z,15.40
2023-04-10T10:12:37.003Z,15.40
2023-04-10T10:15:21.875Z,15.30
2023-04-10T10:18:07.890Z,15.20
2023-04-10T10:20:36.820Z,14.90
2023-04-10T10:23:04.233Z,14.80
2023-04-10T10:25:31.375Z,14.90
2023-04-10T10:28:02.611Z,15.10
2023-04-10T10:30:33.818Z,15.20
2023-04-10T10:33:02.090Z,15.30
2023-04-10T10:35:31.837Z,15.60
2023-04-10T10:38:03.100Z,15.60
2023-04-10T10:40:45.957Z,15.30
2023-04-10T10:43:24.482Z,15.40
2023-04-10T10:46:02.351Z,15.30
2023-04-10T10:48:29.195Z,15.40
2023-04-10T10:50:58.943Z,15.20
2023-04-10T10:53:36.375Z,15.30
2023-04-10T10:56:18.243Z,15.40
2023-04-10T10:59:01.748Z,15.40
2023-04-10T11:01:28.663Z,15.30
2023-04-10T11:03:55.807Z,15.10
2023-04-10T11:06:49.795Z,15.00
2023-04-10T11:09:51.601Z,15.10
2023-04-10T11:12:25.229Z,15.10
2023-04-10T11:15:01.071Z,15.00
2023-04-10T11:17:51.540Z,15.00
2023-04-10T11:20:21.728Z,15.30
2023-04-10T11:23:11.569Z,15.70
2023-04-10T11:25:51.251Z,15.70
2023-04-10T11:28:33.338Z,16.00
2023-04-10T11:31:19.590Z,16.10
2023-04-10T11:34:07.961Z,16.10
2023-04-10T11:36:38.280Z,16.30
2023-04-10T11:39:06.323Z,16.20
2023-04-10T11:41:37.459Z,16.30
2023-04-10T11:44:10.313Z,16.30
2023-04-10T11:46:39.158Z,16.20
2023-04-10T11:49:07.390Z,16.10
2023-04-10T11:51:34.120Z,15.90
2023-04-10T11:54:09.392Z,16.00
2023-04-10T11:56:37.537Z,15.80
2023-04-10T11:59:11.303Z,15.60
2023-04-10T12:01:39.956Z,15.50
2023-04-10T12:04:19.632Z,15.60
2023-04-10T12:06:53.803Z,15.80
2023-04-10T12:09:21.381Z,15.70
2023-04-10T12:11:53.718Z,15.80
2023-04-10T12:14:22.216Z,16.00
2023-04-10T12:16:50.003Z,16.20
2023-04-10T12:19:18.276Z,16.10
2023-04-10T12:21:45.900Z,16.00
2023-04-10T12:24:13.083Z,15.90
2023-04-10T12:26:49.420Z,15.80
2023-04-10T12:29:16.521Z,15.90
2023-04-10T12:31:43.558Z,15.90
2023-04-10T12:34:11.303Z,16.00
2023-04-10T12:36:38.133Z,16.20
2023-04-10T12:39:06.028Z,16.40
2023-04-10T12:41:34.251Z,16.50
2023-04-10T12:44:09.500Z,16.50
2023-04-10T12:46:36.622Z,16.70
2023-04-10T12:49:11.579Z,16.90
2023-04-10T12:51:42.625Z,16.70
2023-04-10T12:54:09.350Z,16.60
2023-04-10T12:56:43.879Z,16.60
2023-04-10T12:59:10.716Z,16.80
2023-04-10T13:01:38.920Z,16.80
2023-04-10T13:04:06.013Z,16.80
2023-04-10T13:06:32.706Z,16.80
2023-04-10T13:08:59.732Z,16.90
2023-04-10T13:11:26.298Z,16.90
2023-04-10T13:13:52.958Z,17.00
2023-04-10T13:16:19.597Z,16.80
2023-04-10T13:18:46.337Z,17.00
2023-04-10T13:21:18.239Z,17.00
2023-04-10T13:23:45.148Z,16.80
2023-04-10T13:26:11.816Z,16.70
2023-04-10T13:28:38.392Z,16.70
2023-04-10T13:31:05.530Z,16.60
2023-04-10T13:33:32.178Z,16.40
2023-04-10T13:35:58.872Z,16.50
2023-04-10T13:38:25.647Z,16.50
2023-04-10T13:40:53.366Z,16.60
2023-04-10T13:43:20.053Z,16.80
2023-04-10T13:45:46.775Z,17.00
2023-04-10T13:48:16.048Z,17.20
2023-04-10T13:50:42.706Z,17.50
2023-04-10T13:53:10.180Z,17.70
2023-04-10T13:55:37.864Z,17.60
2023-04-10T13:58:04.651Z,17.30
2023-04-10T14:00:31.475Z,16.90
2023-04-10T14:02:58.446Z,17.00
2023-04-10T14:05:25.343Z,17.00
2023-04-10T14:07:56.634Z,17.20
2023-04-10T14:10:23.969Z,17.70
2023-04-10T14:12:50.607Z,17.50
2023-04-10T14:15:19.016Z,17.40
2023-04-10T14:17:45.734Z,17.20
2023-04-10T14:20:13.188Z,17.30
2023-04-10T14:22:39.825Z,17.10
2023-04-10T14:25:13.082Z,17.20
2023-04-10T14:27:40.568Z,17.10
2023-04-10T14:30:08.057Z,17.20
2023-04-10T14:32:34.716Z,17.00
2023-04-10T14:35:01.509Z,16.90
2023-04-10T14:37:28.098Z,17.00
2023-04-10T14:39:55.457Z,16.90
2023-04-10T14:42:23.549Z,16.70
2023-04-10T14:44:50.468Z,16.70
2023-04-10T14:47:17.170Z,16.80
2023-04-10T14:49:44.193Z,16.80
2023-04-10T14:52:10.893Z,17.00
2023-04-10T14:54:38.020Z,17.30
2023-04-10T14:57:04.784Z,17.20
2023-04-10T14:59:31.769Z,17.40
2023-04-10T15:01:58.639Z,17.50
2023-04-10T15:04:25.680Z,17.70
2023-04-10T15:06:52.675Z,17.50
2023-04-10T15:09:21.355Z,17.40
2023-04-10T15:11:48.584Z,17.40
2023-04-10T15:14:15.317Z,17.20
2023-04-10T15:16:42.025Z,17.10
2023-04-10T15:19:08.710Z,16.90
2023-04-10T15:21:35.311Z,16.90
2023-04-10T15:24:01.978Z,16.90
2023-04-10T15:26:28.612Z,16.70
2023-04-10T15:28:55.218Z,16.50
2023-04-10T15:31:23.338Z,16.40
2023-04-10T15:33:52.070Z,16.20
2023-04-10T15:36:18.867Z,16.10
2023-04-10T15:38:45.640Z,16.00
2023-04-10T15:41:13.384Z,15.90
2023-04-10T15:43:40.177Z,16.00
2023-04-10T15:46:07.030Z,16.10
2023-04-10T15:48:33.921Z,16.20
2023-04-10T15:51:04.973Z,16.10
2023-04-10T15:53:31.684Z,16.00
2023-04-10T15:55:58.534Z,16.00
2023-04-10T15:58:25.271Z,15.90
2023-04-10T16:00:51.930Z,16.00
2023-04-10T16:03:18.820Z,16.00
2023-04-10T16:05:45.521Z,16.00
2023-04-10T16:08:12.098Z,16.10
2023-04-10T16:10:39.107Z,16.10
2023-04-10T16:13:06.795Z,16.10
2023-04-10T16:15:35.606Z,16.00
2023-04-10T16:18:06.399Z,16.00
2023-04-10T16:20:33.471Z,16.00
2023-04-10T16:23:00.399Z,16.00
2023-04-10T16:25:27.903Z,16.00
2023-04-10T16:27:55.731Z,15.90
2023-04-10T16:30:22.644Z,15.80
2023-04-10T16:32:49.329Z,15.80
2023-04-10T16:35:18.022Z,15.80
2023-04-10T16:37:45.774Z,15.70
2023-04-10T16:40:12.562Z,15.60
2023-04-10T16:42:40.039Z,15.50
2023-04-10T16:45:08.265Z,15.40
2023-04-10T16:47:35.198Z,15.40
2023-04-10T16:50:01.954Z,15.30
2023-04-10T16:52:28.616Z,15.30
2023-04-10T16:54:55.497Z,15.30
2023-04-10T16:57:22.285Z,15.20
2023-04-10T16:59:49.045Z,15.20
2023-04-10T17:02:15.718Z,15.20
2023-04-10T17:04:42.370Z,15.10
2023-04-10T17:07:09.424Z,15.10
2023-04-10T17:09:36.171Z,15.10
2023-04-10T17:12:02.805Z,15.10
2023-04-10T17:14:29.568Z,15.00
2023-04-10T17:16:56.507Z,15.00
2023-04-10T17:19:23.205Z,15.00
2023-04-10T17:21:52.035Z,14.90
2023-04-10T17:24:18.634Z,15.00
2023-04-10T17:26:45.341Z,14.90
2023-04-10T17:29:11.943Z,14.90
2023-04-10T17:31:38.709Z,14.90
2023-04-10T17:34:05.322Z,14.90
2023-04-10T17:36:32.426Z,14.90
2023-04-10T17:38:59.882Z,14.90
2023-04-10T17:41:26.891Z,14.90
2023-04-10T17:43:53.560Z,14.90
2023-04-10T17:46:20.220Z,14.80
2023-04-10T17:48:46.930Z,14.80
2023-04-10T17:51:13.643Z,14.70
2023-04-10T17:53:40.421Z,14.70
2023-04-10T17:56:07.635Z,14.70
2023-04-10T17:58:34.277Z,14.70
2023-04-10T18:01:01.093Z,14.70
2023-04-10T18:03:28.233Z,14.70
2023-04-10T18:05:55.094Z,14.60
2023-04-10T18:08:21.732Z,14.60
2023-04-10T18:10:48.504Z,14.60
2023-04-10T18:13:15.211Z,14.50
2023-04-10T18:15:41.910Z,14.50
2023-04-10T18:18:08.594Z,14.50
2023-04-10T18:20:35.508Z,14.50
2023-04-10T18:23:04.685Z,14.40
2023-04-10T18:25:31.377Z,14.40
2023-04-10T18:28:13.629Z,14.30
2023-04-10T18:30:41.679Z,14.30
2023-04-10T18:33:10.882Z,14.30
2023-04-10T18:35:38.066Z,14.30
2023-04-10T18:38:04.906Z,14.20
2023-04-10T18:40:31.617Z,14.20
2023-04-10T18:42:59.547Z,14.20
2023-04-10T18:45:26.158Z,14.20
2023-04-10T18:47:52.879Z,14.10
2023-04-10T18:50:19.504Z,14.10
2023-04-10T18:52:46.110Z,14.10
2023-04-10T18:55:12.821Z,14.10
2023-04-10T18:57:39.520Z,14.10
2023-04-10T19:00:08.125Z,14.10
2023-04-10T19:02:35.105Z,14.10
2023-04-10T19:05:01.870Z,14.00
2023-04-10T19:07:28.592Z,14.00
2023-04-10T19:09:55.238Z,14.00
2023-04-10T19:12:22.510Z,14.00
2023-04-10T19:14:49.106Z,14.00
2023-04-10T19:17:15.836Z,14.00
2023-04-10T19:19:42.809Z,14.00
2023-04-10T19:22:09.455Z,13.90
2023-04-10T19:24:36.143Z,13.90
2023-04-10T19:27:02.767Z,13.90
2023-04-10T19:29:30.863Z,13.90
2023-04-10T19:31:58.016Z,13.90
2023-04-10T19:34:24.612Z,13.90
2023-04-10T19:36:51.303Z,13.80
2023-04-10T19:39:18.325Z,13.80
2023-04-10T19:41:45.023Z,13.80
2023-04-10T19:44:11.984Z,13.80
2023-04-10T19:46:38.765Z,13.80
2023-04-10T19:49:05.488Z,13.80
2023-04-10T19:51:32.265Z,13.70
2023-04-10T19:53:59.192Z,13.70
2023-04-10T19:56:27.597Z,13.70
2023-04-10T19:58:54.221Z,13.70
2023-04-10T20:01:20.939Z,13.70
2023-04-10T20:03:47.733Z,13.70
2023-04-10T20:06:16.279Z,13.60
2023-04-10T20:08:42.988Z,13.70
2023-04-10T20:11:09.773Z,13.70
2023-04-10T20:13:36.587Z,13.60
2023-04-10T20:16:03.291Z,13.70
2023-04-10T20:18:31.421Z,13.70
2023-04-10T20:20:58.067Z,13.70
2023-04-10T20:23:24.668Z,13.70
2023-04-10T20:25:51.389Z,13.70
2023-04-10T20:28:18.561Z,13.60
2023-04-10T20:30:45.260Z,13.30
2023-04-10T20:33:11.996Z,13.10
2023-04-10T20:35:38.869Z,12.70
2023-04-10T20:38:05.641Z,12.40
2023-04-10T20:40:32.534Z,12.00
2023-04-10T20:42:59.213Z,11.60
2023-04-10T20:45:25.893Z,11.30
2023-04-10T20:47:52.618Z,11.10
2023-04-10T20:50:19.494Z,10.90
2023-04-10T20:52:46.227Z,10.70
2023-04-10T20:55:12.902Z,10.70
2023-04-10T20:57:39.779Z,10.60
2023-04-10T21:00:07.154Z,10.60
2023-04-10T21:02:34.137Z,10.60
2023-04-10T21:05:00.920Z,10.60
2023-04-10T21:07:27.949Z,10.50
2023-04-10T21:09:54.662Z,10.50
2023-04-10T21:12:22.630Z,10.50
2023-04-10T21:14:49.391Z,10.50
2023-04-10T21:17:17.715Z,10.50
2023-04-10T21:19:44.468Z,10.40
2023-04-10T21:22:11.348Z,10.40
2023-04-10T21:24:38.130Z,10.40
2023-04-10T21:27:05.096Z,10.40
2023-04-10T21:29:31.777Z,10.40
2023-04-10T21:31:58.460Z,10.40
2023-04-10T21:34:25.452Z,10.40
2023-04-10T21:36:52.084Z,10.40
2023-04-10T21:39:18.835Z,10.50
2023-04-10T21:41:45.585Z,10.60
2023-04-10T21:44:12.493Z,10.80
2023-04-10T21:46:39.123Z,11.00
2023-04-10T21:49:06.755Z,11.00
2023-04-10T21:51:33.509Z,10.90
2023-04-10T21:54:00.197Z,10.70
2023-04-10T21:56:26.798Z,10.50
2023-04-10T21:58:53.793Z,10.30
2023-04-10T22:01:20.874Z,10.10
2023-04-10T22:03:47.577Z,10.00
2023-04-10T22:06:14.335Z,9.80
2023-04-10T22:08:41.264Z,9.70
2023-04-10T22:11:09.309Z,9.30
2023-04-10T22:13:35.905Z,9.00
2023-04-10T22:16:02.759Z,8.80
2023-04-10T22:18:29.689Z,8.70
2023-04-10T22:20:56.656Z,8.60
2023-04-10T22:23:26.254Z,8.50
2023-04-10T22:25:52.989Z,8.50
2023-04-10T22:28:19.728Z,8.50
2023-04-10T22:30:46.369Z,8.50
2023-04-10T22:33:13.054Z,8.40
2023-04-10T22:35:39.749Z,8.40
2023-04-10T22:38:07.467Z,8.30
2023-04-10T22:40:34.047Z,8.30
2023-04-10T22:43:00.692Z,8.20
2023-04-10T22:45:27.264Z,8.20
2023-04-10T22:47:54.226Z,8.20
2023-04-10T22:50:21.079Z,8.20
2023-04-10T22:52:47.781Z,8.10
2023-04-10T22:55:15.711Z,8.10
2023-04-10T22:57:42.287Z,8.10
2023-04-10T23:00:09.348Z,8.10
2023-04-10T23:02:36.330Z,8.00
2023-04-10T23:05:03.288Z,8.00
2023-04-10T23:07:30.173Z,8.00
2023-04-10T23:09:56.880Z,7.90
2023-04-10T23:12:23.976Z,7.90
2023-04-10T23:14:50.566Z,7.90
2023-04-10T23:17:17.280Z,7.90
2023-04-10T23:19:43.942Z,7.90
2023-04-10T23:22:10.753Z,7.90
2023-04-10T23:24:38.407Z,7.80
2023-04-10T23:27:08.122Z,7.90
2023-04-10T23:29:34.960Z,7.90
2023-04-10T23:32:01.618Z,7.90
2023-04-10T23:34:28.545Z,7.90
2023-04-10T23:36:55.589Z,7.90
2023-04-10T23:39:22.266Z,7.90
2023-04-10T23:41:48.931Z,8.00
2023-04-10T23:44:15.636Z,8.00
2023-04-10T23:46:42.307Z,8.00
2023-04-10T23:49:08.958Z,7.90
2023-04-10T23:51:35.791Z,7.90
2023-04-10T23:54:02.405Z,7.90
2023-04-10T23:56:29.341Z,7.90
2023-04-10T23:58:56.592Z,7.90
